Time;durP1;ratioP1;P1;durP2;ratioP2;P2;SDS_P1;SDS_P2;PMS_P1;PMS_P2;Temp;Humidity;BMP_temperature;BMP_pressure;BME280_temperature;BME280_humidity;BME280_pressure;Samples;Min_cycle;Max_cycle;Signal;HPM_P1;HPM_P2
2023/06/13 00:02:12;;;;;;;10.85;5.97;;;;;;;19.79;39.48;101206.44;5052763;28;20049;-43
2023/06/13 00:04:43;;;;;;;15.13;6.15;;;;;;;19.72;39.07;101205.59;5052848;28;20483;-44
2023/06/13 00:07:09;;;;;;;12.32;6.57;;;;;;;19.65;39.27;101206.50;5052960;28;20453;-46
2023/06/13 00:09:35;;;;;;;11.98;6.15;;;;;;;19.56;39.72;101203.88;5052562;28;20083;-47
2023/06/13 00:12:00;;;;;;;13.25;6.38;;;;;;;19.61;39.77;101206.50;5052435;28;20021;-45
2023/06/13 00:14:26;;;;;;;12.05;6.43;;;;;;;19.44;39.95;101209.16;5052632;28;20025;-47
2023/06/13 00:16:51;;;;;;;10.38;6.32;;;;;;;19.37;39.83;101203.06;5052754;28;20083;-43
2023/06/13 00:19:17;;;;;;;13.48;7.22;;;;;;;19.27;40.76;101212.63;5051885;28;20031;-47
2023/06/13 00:21:43;;;;;;;9.73;6.38;;;;;;;19.15;40.82;101200.47;5052799;28;20184;-43
2023/06/13 00:24:08;;;;;;;14.70;6.80;;;;;;;19.16;41.88;101209.16;5052847;28;20025;-42
2023/06/13 00:26:34;;;;;;;12.48;6.32;;;;;;;18.97;41.55;101198.72;5052138;28;20025;-43
2023/06/13 00:28:59;;;;;;;12.15;6.38;;;;;;;18.99;42.03;101201.31;5052540;28;20021;-43
2023/06/13 00:31:28;;;;;;;10.80;6.60;;;;;;;18.80;42.13;101205.63;5052457;28;20032;-45
2023/06/13 00:33:55;;;;;;;13.88;6.55;;;;;;;18.75;42.02;101203.88;5052191;28;20173;-47
2023/06/13 00:36:21;;;;;;;12.97;6.77;;;;;;;18.78;42.59;101202.16;5052413;28;20026;-43
2023/06/13 00:38:49;;;;;;;11.70;6.90;;;;;;;18.76;42.26;101202.16;5052758;28;20025;-43
2023/06/13 00:41:15;;;;;;;12.65;6.82;;;;;;;18.65;42.44;101199.50;5052116;28;20052;-48
2023/06/13 00:43:40;;;;;;;11.57;6.72;;;;;;;18.57;42.26;101203.84;5052261;28;20071;-48
2023/06/13 00:46:05;;;;;;;13.05;7.00;;;;;;;18.58;42.80;101190.81;5052754;28;20025;-47
2023/06/13 00:48:33;;;;;;;13.60;6.95;;;;;;;18.67;41.96;101199.50;5051674;28;20033;-48
2023/06/13 00:50:59;;;;;;;14.68;6.88;;;;;;;18.54;42.63;101194.28;5052329;28;20397;-45
2023/06/13 00:53:29;;;;;;;14.05;6.75;;;;;;;18.52;43.26;101188.16;5052532;28;20033;-44
2023/06/13 00:55:56;;;;;;;10.35;6.70;;;;;;;18.45;43.15;101191.66;5052043;28;20405;-44
2023/06/13 00:58:21;;;;;;;10.27;6.40;;;;;;;18.40;42.51;101196.00;5052108;28;20188;-43
2023/06/13 01:00:47;;;;;;;10.35;6.68;;;;;;;18.33;43.74;101189.84;5052261;28;20545;-46
2023/06/13 01:03:15;;;;;;;11.18;6.93;;;;;;;18.22;43.84;101196.81;5053953;28;20037;-42
2023/06/13 01:05:44;;;;;;;11.00;7.68;;;;;;;18.12;43.87;101190.66;5056279;28;20032;-46
2023/06/13 01:08:13;;;;;;;12.70;6.90;;;;;;;18.13;44.12;101191.53;5055625;28;20499;-47
2023/06/13 01:10:42;;;;;;;12.00;7.63;;;;;;;18.09;44.33;101190.66;5055749;28;20116;-47
2023/06/13 01:13:16;;;;;;;14.40;7.57;;;;;;;18.02;44.94;101188.88;5056246;28;20029;-43
2023/06/13 01:15:51;;;;;;;15.00;7.32;;;;;;;17.87;45.50;101192.25;5055694;28;20112;-44
2023/06/13 01:18:22;;;;;;;12.93;7.50;;;;;;;17.85;45.30;101191.38;5055547;28;20461;-44
2023/06/13 01:20:56;;;;;;;11.68;7.15;;;;;;;17.74;45.56;101187.00;5055772;28;20074;-47
2023/06/13 01:23:44;;;;;;;13.63;8.05;;;;;;;17.80;45.59;101187.88;5055265;28;20095;-42
2023/06/13 01:26:37;;;;;;;14.88;7.25;;;;;;;17.65;45.73;101189.56;5055757;28;20071;-42
2023/06/13 01:29:04;;;;;;;13.63;7.43;;;;;;;17.63;46.20;101191.25;5056081;28;20033;-43
2023/06/13 01:31:32;;;;;;;15.77;8.02;;;;;;;17.47;46.95;101194.63;5055299;28;20025;-45
2023/06/13 01:33:58;;;;;;;13.40;7.50;;;;;;;17.41;47.18;101193.72;5055556;28;20203;-43
2023/06/13 01:36:25;;;;;;;17.75;8.25;;;;;;;17.35;47.66;101195.41;5054871;28;20036;-44
2023/06/13 01:38:50;;;;;;;10.98;7.10;;;;;;;17.32;48.70;101191.06;5055623;28;20021;-44
2023/06/13 01:41:15;;;;;;;11.65;7.65;;;;;;;17.19;48.69;101191.84;5055439;28;20029;-42
2023/06/13 01:43:41;;;;;;;16.58;8.27;;;;;;;17.13;49.01;101187.44;5055129;28;20025;-44
2023/06/13 01:46:17;;;;;;;11.95;7.85;;;;;;;17.17;48.75;101191.84;5055484;28;20033;-45
2023/06/13 01:48:46;;;;;;;13.18;8.57;;;;;;;16.93;50.39;101189.91;5055684;28;20048;-44
2023/06/13 01:51:31;;;;;;;14.93;8.68;;;;;;;17.01;48.55;101185.63;5054855;28;20435;-43
2023/06/13 01:54:03;;;;;;;13.23;7.47;;;;;;;16.92;50.20;101190.75;5055350;28;20049;-43
2023/06/13 01:56:31;;;;;;;25.63;8.88;;;;;;;16.84;50.50;101187.19;5055137;28;20025;-46
2023/06/13 01:59:00;;;;;;;15.13;8.57;;;;;;;16.82;50.10;101181.06;5054842;28;20028;-43
2023/06/13 02:01:26;;;;;;;14.73;8.32;;;;;;;16.88;50.91;101179.41;5054570;28;20050;-45
2023/06/13 02:03:52;;;;;;;13.48;8.23;;;;;;;16.69;51.36;101177.47;5055368;28;20017;-44
2023/06/13 02:06:18;;;;;;;15.60;8.52;;;;;;;16.69;50.96;101180.09;5054529;28;20028;-44
2023/06/13 02:08:46;;;;;;;16.55;9.15;;;;;;;16.67;51.11;101187.00;5055085;28;20421;-43
2023/06/13 02:11:11;;;;;;;12.75;7.70;;;;;;;16.69;51.19;101183.56;5055170;28;20029;-42
2023/06/13 02:13:37;;;;;;;15.02;8.60;;;;;;;16.62;51.79;101181.75;5053875;28;20025;-46
2023/06/13 02:16:03;;;;;;;16.13;9.18;;;;;;;16.58;52.28;101182.59;5054693;28;20025;-45
2023/06/13 02:18:28;;;;;;;17.50;9.13;;;;;;;16.44;53.43;101180.69;5054309;28;20027;-45
2023/06/13 02:20:54;;;;;;;21.67;9.60;;;;;;;16.33;54.17;101179.72;5054345;28;20041;-42
2023/06/13 02:23:20;;;;;;;15.20;8.93;;;;;;;16.25;55.05;101182.22;5054627;28;20025;-46
2023/06/13 02:25:46;;;;;;;15.10;8.95;;;;;;;16.28;53.96;101176.19;5054336;28;20048;-45
2023/06/13 02:28:12;;;;;;;14.18;8.55;;;;;;;16.13;55.07;101184.69;5054443;28;20052;-44
2023/06/13 02:30:37;;;;;;;13.57;9.10;;;;;;;16.02;56.33;101184.53;5054391;28;20159;-43
2023/06/13 02:33:03;;;;;;;15.38;9.60;;;;;;;15.90;57.35;101181.81;5054068;28;20108;-42
2023/06/13 02:35:28;;;;;;;16.70;9.77;;;;;;;15.88;56.80;101178.31;5054234;28;20033;-44
2023/06/13 02:37:54;;;;;;;15.57;10.02;;;;;;;15.79;57.38;101182.50;5054605;28;20017;-45
2023/06/13 02:40:20;;;;;;;19.60;9.93;;;;;;;15.65;58.40;101181.44;5053680;28;20099;-48
2023/06/13 02:42:47;;;;;;;16.80;9.25;;;;;;;15.74;57.69;101178.97;5054298;28;20078;-42
2023/06/13 02:45:13;;;;;;;14.82;8.68;;;;;;;15.71;58.01;101186.75;5054413;28;20032;-43
2023/06/13 02:47:38;;;;;;;17.02;10.15;;;;;;;15.61;57.97;101187.47;5053764;28;20029;-44
2023/06/13 02:50:03;;;;;;;13.93;9.60;;;;;;;15.60;57.99;101189.16;5054016;28;20048;-46
2023/06/13 02:52:29;;;;;;;16.50;9.90;;;;;;;15.52;59.35;101183.00;5054071;28;20036;-43
2023/06/13 02:54:54;;;;;;;17.77;10.82;;;;;;;15.51;59.14;101186.44;5053786;28;20080;-44
2023/06/13 02:57:19;;;;;;;18.10;9.48;;;;;;;15.52;58.39;101187.28;5053685;28;20118;-42
2023/06/13 02:59:47;;;;;;;15.05;10.18;;;;;;;15.47;58.87;101185.50;5053923;28;20496;-42
2023/06/13 03:02:12;;;;;;;;;;;;;;;15.61;55.64;101188.31;5053964;28;20431;-43
2023/06/13 03:04:38;;;;;;;17.63;10.27;;;;;;;15.48;58.62;101187.25;5053630;28;20471;-45
2023/06/13 03:07:05;;;;;;;19.88;10.57;;;;;;;15.43;59.87;101183.72;5054070;28;20025;-44
2023/06/13 03:09:31;;;;;;;14.48;9.95;;;;;;;15.41;59.92;101187.16;5053241;28;20376;-42
2023/06/13 03:11:56;;;;;;;15.55;10.50;;;;;;;15.28;60.84;101184.34;5053729;28;20036;-42
2023/06/13 03:14:22;;;;;;;15.27;10.13;;;;;;;15.21;61.36;101185.13;5053418;28;20032;-43
2023/06/13 03:16:48;;;;;;;14.00;10.07;;;;;;;15.21;61.28;101186.84;5053410;28;20028;-46
2023/06/13 03:19:13;;;;;;;18.50;10.23;;;;;;;15.11;62.08;101181.50;5053539;28;20120;-44
2023/06/13 03:21:41;;;;;;;17.60;10.30;;;;;;;15.09;62.20;101193.59;5053152;28;20539;-44
2023/06/13 03:24:06;;;;;;;16.70;9.85;;;;;;;15.07;62.47;101184.03;5053445;28;20381;-48
2023/06/13 03:26:37;;;;;;;17.98;10.73;;;;;;;15.01;61.94;101184.78;5052663;28;20029;-46
2023/06/13 03:29:03;;;;;;;15.82;9.93;;;;;;;15.01;62.20;101183.94;5053029;28;20036;-46
2023/06/13 03:31:28;;;;;;;19.60;10.25;;;;;;;14.98;62.68;101179.56;5053139;28;20029;-44
2023/06/13 03:33:53;;;;;;;20.92;10.30;;;;;;;14.98;62.58;101174.38;5053448;28;20350;-48
2023/06/13 03:36:19;;;;;;;17.50;9.52;;;;;;;15.04;61.87;101176.19;5052571;28;20021;-46
2023/06/13 03:38:44;;;;;;;21.02;10.27;;;;;;;14.99;62.85;101173.53;5053274;28;20031;-46
2023/06/13 03:41:10;;;;;;;17.55;10.68;;;;;;;15.05;62.14;101173.59;5053280;28;20381;-45
2023/06/13 03:43:35;;;;;;;17.23;10.65;;;;;;;14.99;63.33;101178.72;5052371;28;20028;-47
2023/06/13 03:46:00;;;;;;;16.83;9.93;;;;;;;15.11;62.09;101171.13;5053216;28;20067;-48
2023/06/13 03:48:25;;;;;;;15.93;10.50;;;;;;;15.05;63.80;101164.94;5053131;28;20021;-43
2023/06/13 03:50:51;;;;;;;17.58;9.98;;;;;;;15.11;62.39;101170.25;5052552;28;20098;-45
2023/06/13 03:53:16;;;;;;;19.92;10.73;;;;;;;15.02;64.03;101170.97;5052744;28;20056;-45
2023/06/13 03:55:44;;;;;;;17.90;10.30;;;;;;;14.99;65.00;101170.94;5053189;28;20013;-48
2023/06/13 03:58:11;;;;;;;17.02;10.55;;;;;;;15.04;64.21;101174.47;5052537;28;20029;-44
2023/06/13 04:00:39;;;;;;;15.80;10.90;;;;;;;15.00;65.23;101169.19;5052598;28;20027;-43
2023/06/13 04:03:04;;;;;;;;;;;;;;;15.18;61.09;101173.81;5053620;28;20032;-48
2023/06/13 04:05:31;;;;;;;14.45;10.43;;;;;;;15.10;63.92;101174.56;5052490;28;19912;-46
2023/06/13 04:07:56;;;;;;;15.43;10.55;;;;;;;15.18;63.22;101181.59;5052961;28;20032;-47
2023/06/13 04:10:22;;;;;;;16.83;12.20;;;;;;;15.21;63.13;101181.63;5052635;28;20381;-47
2023/06/13 04:12:47;;;;;;;16.27;10.25;;;;;;;15.30;62.53;101176.63;5052376;28;20025;-46
2023/06/13 04:15:13;;;;;;;20.10;11.40;;;;;;;15.29;62.86;101182.66;5052765;28;20396;-47
2023/06/13 04:17:38;;;;;;;15.18;10.50;;;;;;;15.35;62.05;101185.34;5052486;28;20033;-46
2023/06/13 04:20:05;;;;;;;14.23;10.38;;;;;;;15.36;64.06;101181.88;5052103;28;20041;-44
2023/06/13 04:22:31;;;;;;;16.35;10.60;;;;;;;15.38;64.12;101180.19;5052480;28;20598;-47
2023/06/13 04:24:57;;;;;;;16.63;11.02;;;;;;;15.47;62.69;101184.66;5052356;28;20021;-46
2023/06/13 04:27:27;;;;;;;19.15;11.48;;;;;;;15.55;62.72;101189.97;5052369;28;20021;-48
2023/06/13 04:29:53;;;;;;;19.48;10.93;;;;;;;15.66;61.32;101185.78;5053060;28;20075;-46
2023/06/13 04:32:19;;;;;;;15.82;10.32;;;;;;;15.84;60.86;101184.31;5051908;28;20028;-48
2023/06/13 04:34:45;;;;;;;16.10;9.90;;;;;;;15.87;59.84;101192.16;5052583;28;20094;-46
2023/06/13 04:37:13;;;;;;;21.80;10.60;;;;;;;16.02;58.76;101200.16;5054746;28;20017;-47
2023/06/13 04:39:38;;;;;;;21.48;10.73;;;;;;;16.18;57.85;101197.72;5056005;28;20033;-44
2023/06/13 04:42:04;;;;;;;17.35;10.35;;;;;;;16.23;58.97;101202.16;5056372;28;20094;-46
2023/06/13 04:44:29;;;;;;;15.40;9.95;;;;;;;16.31;59.41;101202.25;5056530;28;20102;-45
2023/06/13 04:46:57;;;;;;;17.30;9.95;;;;;;;16.46;57.66;101206.72;5056286;28;20426;-42
2023/06/13 04:49:23;;;;;;;14.32;9.43;;;;;;;16.50;56.95;101202.44;5056119;28;20408;-45
2023/06/13 04:51:49;;;;;;;21.48;9.93;;;;;;;16.60;56.05;101201.69;5056613;28;20028;-44
2023/06/13 04:54:15;;;;;;;15.52;9.90;;;;;;;16.74;54.74;101202.69;5055948;28;20029;-46
2023/06/13 04:56:41;;;;;;;18.42;9.63;;;;;;;16.79;56.22;101211.41;5056259;28;20457;-48
2023/06/13 04:59:06;;;;;;;15.82;10.05;;;;;;;16.86;56.55;101206.28;5056648;28;20021;-48
2023/06/13 05:01:32;;;;;;;19.92;10.68;;;;;;;16.94;55.96;101208.13;5055629;28;20036;-46
2023/06/13 05:03:58;;;;;;;19.15;9.88;;;;;;;17.03;55.42;101209.94;5056237;28;20056;-47
2023/06/13 05:06:23;;;;;;;18.90;10.25;;;;;;;17.07;55.76;101216.91;5056214;28;20036;-48
2023/06/13 05:08:49;;;;;;;19.73;10.10;;;;;;;17.17;54.92;101219.59;5055755;28;20100;-47
2023/06/13 05:11:15;;;;;;;17.50;10.35;;;;;;;17.27;55.19;101219.69;5056169;28;20401;-46
2023/06/13 05:13:40;;;;;;;14.82;9.98;;;;;;;17.29;53.70;101217.09;5056233;28;20422;-48
2023/06/13 05:16:06;;;;;;;20.25;9.80;;;;;;;17.35;54.46;101217.16;5055787;28;20115;-46
2023/06/13 05:18:32;;;;;;;15.93;9.82;;;;;;;17.42;54.79;101224.13;5055506;28;20036;-46
2023/06/13 05:20:58;;;;;;;16.38;9.90;;;;;;;17.50;52.99;101226.81;5055656;28;20132;-48
2023/06/13 05:23:25;;;;;;;16.05;9.98;;;;;;;17.56;53.80;101226.84;5054845;28;20428;-46
2023/06/13 05:25:50;;;;;;;17.13;9.90;;;;;;;17.64;53.13;101213.88;5055825;28;20422;-48
2023/06/13 05:28:22;;;;;;;15.48;9.70;;;;;;;17.73;53.41;101224.34;5054940;28;20024;-43
2023/06/13 05:30:48;;;;;;;16.50;10.20;;;;;;;17.76;52.81;101226.97;5055783;28;20032;-45
2023/06/13 05:33:16;;;;;;;16.50;10.32;;;;;;;17.83;51.96;101224.38;5055889;28;20077;-48
2023/06/13 05:35:42;;;;;;;17.00;10.75;;;;;;;17.89;51.50;101234.84;5055305;28;20159;-43
2023/06/13 05:38:11;;;;;;;21.27;10.65;;;;;;;17.92;51.28;101224.44;5055423;28;20059;-47
2023/06/13 05:40:36;;;;;;;19.55;11.25;;;;;;;17.99;51.65;101231.47;5055166;28;20397;-45
2023/06/13 05:43:02;;;;;;;31.10;12.23;;;;;;;18.04;51.20;101229.75;5055164;28;20481;-43
2023/06/13 05:45:28;;;;;;;20.02;12.15;;;;;;;18.07;50.99;101223.69;5055168;28;20052;-47
2023/06/13 05:47:53;;;;;;;20.30;12.02;;;;;;;18.10;53.52;101224.56;5054914;28;20465;-47
2023/06/13 05:50:18;;;;;;;27.60;12.82;;;;;;;18.17;51.87;101222.00;5054682;28;20037;-44
2023/06/13 05:52:44;;;;;;;20.02;12.18;;;;;;;18.22;51.46;101222.88;5055068;28;20021;-46
2023/06/13 05:55:09;;;;;;;19.85;11.75;;;;;;;18.26;51.46;101224.63;5055384;28;20025;-45
2023/06/13 05:57:39;;;;;;;20.33;12.82;;;;;;;18.36;52.15;101231.63;5054680;28;20836;-45
2023/06/13 06:00:08;;;;;;;21.45;12.02;;;;;;;18.44;52.64;101218.59;5055074;28;20029;-45
2023/06/13 06:02:34;;;;;;;22.08;13.20;;;;;;;18.49;51.52;101216.88;5054942;28;20024;-45
2023/06/13 06:05:00;;;;;;;23.42;11.98;;;;;;;18.55;51.18;101223.84;5054603;28;20033;-47
2023/06/13 06:07:26;;;;;;;19.45;12.30;;;;;;;18.66;51.48;101229.97;5054569;28;20024;-48
2023/06/13 06:09:51;;;;;;;21.75;11.98;;;;;;;18.72;51.95;101234.31;5055235;28;20029;-48
2023/06/13 06:12:17;;;;;;;17.42;11.80;;;;;;;18.78;49.76;101233.47;5054474;28;20032;-48
2023/06/13 06:14:42;;;;;;;26.38;12.35;;;;;;;18.84;49.40;101230.88;5054964;28;20056;-46
2023/06/13 06:17:07;;;;;;;23.20;12.95;;;;;;;18.91;48.90;101235.25;5055092;28;20025;-47
2023/06/13 06:19:32;;;;;;;20.10;12.18;;;;;;;18.96;49.22;101238.75;5053715;28;20027;-47
2023/06/13 06:21:58;;;;;;;18.17;11.20;;;;;;;19.07;50.82;101231.81;5054827;28;20036;-48
2023/06/13 06:24:23;;;;;;;20.30;12.07;;;;;;;19.11;49.40;101227.47;5054731;28;20044;-46
2023/06/13 06:26:49;;;;;;;20.65;11.60;;;;;;;19.19;49.19;101230.06;5054016;28;20096;-43
2023/06/13 06:29:14;;;;;;;24.42;12.65;;;;;;;19.27;49.54;101225.69;5055001;28;20029;-47
2023/06/13 06:31:40;;;;;;;27.35;11.80;;;;;;;19.32;48.89;101221.34;5054153;28;20437;-49
2023/06/13 06:34:05;;;;;;;22.48;12.85;;;;;;;19.37;49.31;101227.44;5054366;28;20074;-45
2023/06/13 06:36:30;;;;;;;21.98;11.93;;;;;;;19.49;50.06;101230.91;5054216;28;20025;-41
2023/06/13 06:38:56;;;;;;;24.25;12.30;;;;;;;19.55;48.32;101236.16;5054238;28;20052;-45
2023/06/13 06:41:21;;;;;;;21.85;12.05;;;;;;;19.58;47.92;101231.75;5054660;28;20040;-43
2023/06/13 06:43:46;;;;;;;24.45;13.25;;;;;;;19.68;47.43;101234.38;5054718;28;20472;-48
2023/06/13 06:46:11;;;;;;;27.52;12.45;;;;;;;19.76;47.38;101230.00;5053905;28;20114;-45
2023/06/13 06:48:37;;;;;;;23.10;12.25;;;;;;;19.86;47.43;101233.50;5053872;28;20051;-43
2023/06/13 06:51:02;;;;;;;20.70;12.60;;;;;;;19.93;47.11;101231.72;5054223;28;20029;-42
2023/06/13 06:53:28;;;;;;;20.20;12.63;;;;;;;19.90;45.90;101230.84;5053655;28;20381;-44
2023/06/13 06:55:53;;;;;;;19.23;11.98;;;;;;;19.95;46.38;101227.34;5054325;28;20487;-40
2023/06/13 06:58:18;;;;;;;28.10;13.32;;;;;;;20.11;47.96;101229.03;5053940;28;20366;-42
2023/06/13 07:00:44;;;;;;;27.73;12.82;;;;;;;20.16;47.87;101231.66;5052726;28;20041;-45
2023/06/13 07:03:09;;;;;;;25.70;13.13;;;;;;;20.27;47.69;101228.97;5053867;28;20480;-46
2023/06/13 07:05:35;;;;;;;24.35;13.30;;;;;;;20.29;46.31;101235.09;5053778;28;20116;-46
2023/06/13 07:08:00;;;;;;;24.77;13.00;;;;;;;20.36;47.34;101232.44;5053693;28;20465;-42
2023/06/13 07:10:26;;;;;;;25.33;13.45;;;;;;;20.43;46.42;101233.25;5053456;28;20134;-47
2023/06/13 07:12:51;;;;;;;21.80;13.00;;;;;;;20.45;46.13;101228.00;5053824;28;20025;-45
2023/06/13 07:15:17;;;;;;;23.98;12.50;;;;;;;20.60;46.97;101237.53;5053429;28;20024;-45
2023/06/13 07:17:42;;;;;;;23.15;13.13;;;;;;;20.70;48.54;101231.41;5053544;28;20024;-47
2023/06/13 07:20:08;;;;;;;24.50;13.85;;;;;;;20.73;45.88;101231.38;5053390;28;20060;-47
2023/06/13 07:22:33;;;;;;;23.95;14.07;;;;;;;20.82;46.11;101238.31;5052587;28;20047;-45
2023/06/13 07:24:59;;;;;;;24.33;12.35;;;;;;;20.87;45.49;101233.91;5053527;28;20033;-47
2023/06/13 07:27:24;;;;;;;28.35;13.45;;;;;;;21.00;46.74;101243.41;5053468;28;20495;-47
2023/06/13 07:29:49;;;;;;;27.65;12.57;;;;;;;21.10;46.33;101245.97;5052784;28;20021;-43
2023/06/13 07:32:15;;;;;;;24.58;12.35;;;;;;;21.14;45.00;101245.06;5053400;28;20032;-42
2023/06/13 07:34:40;;;;;;;28.02;12.98;;;;;;;21.23;44.67;101237.13;5053438;28;20120;-45
2023/06/13 07:37:05;;;;;;;20.67;12.18;;;;;;;21.34;44.46;101243.16;5052753;28;20037;-48
2023/06/13 07:39:31;;;;;;;22.27;12.18;;;;;;;21.45;43.80;101240.41;5053289;28;20032;-45
2023/06/13 07:41:56;;;;;;;24.48;12.65;;;;;;;21.52;44.04;101246.47;5052932;28;20040;-48
2023/06/13 07:44:21;;;;;;;22.27;13.32;;;;;;;21.58;44.58;101243.81;5052837;28;20377;-48
2023/06/13 07:46:47;;;;;;;21.73;12.93;;;;;;;21.66;42.85;101239.34;5053508;28;20078;-44
2023/06/13 07:49:13;;;;;;;19.95;11.63;;;;;;;21.73;44.42;101239.31;5052723;28;20798;-46
2023/06/13 07:51:39;;;;;;;20.40;12.13;;;;;;;21.85;43.95;101231.31;5052857;28;20037;-46
2023/06/13 07:54:04;;;;;;;23.25;12.38;;;;;;;21.97;44.20;101232.91;5053446;28;20056;-46
2023/06/13 07:56:29;;;;;;;26.35;13.02;;;;;;;22.13;45.12;101238.84;5052439;28;20052;-43
2023/06/13 07:58:55;;;;;;;24.52;13.25;;;;;;;22.15;43.45;101234.44;5052936;28;20099;-46
2023/06/13 08:01:21;;;;;;;20.88;11.50;;;;;;;22.25;42.55;101238.69;5052754;28;20103;-43
2023/06/13 08:03:46;;;;;;;27.83;12.55;;;;;;;22.29;41.38;101237.78;5052432;28;20067;-45
2023/06/13 08:06:11;;;;;;;25.38;13.65;;;;;;;22.31;41.12;101238.63;5052921;28;20496;-46
2023/06/13 08:08:37;;;;;;;25.30;12.65;;;;;;;22.43;42.24;101236.78;5052802;28;20025;-47
2023/06/13 08:11:02;;;;;;;22.67;11.63;;;;;;;22.57;40.85;101228.66;5052149;28;20082;-48
2023/06/13 08:13:27;;;;;;;19.63;11.90;;;;;;;22.56;40.23;101235.69;5052519;28;20029;-46
2023/06/13 08:15:53;;;;;;;19.73;11.68;;;;;;;22.64;41.00;101236.44;5053004;28;20480;-47
2023/06/13 08:18:18;;;;;;;18.98;11.63;;;;;;;22.73;40.55;101237.22;5052046;28;20017;-47
2023/06/13 08:20:43;;;;;;;26.20;12.00;;;;;;;22.74;40.28;101237.19;5052414;28;20497;-47
2023/06/13 08:23:10;;;;;;;25.65;12.48;;;;;;;22.89;40.19;101235.22;5052996;28;20045;-47
2023/06/13 08:25:35;;;;;;;19.70;11.20;;;;;;;22.96;41.74;101235.09;5052084;28;20104;-47
2023/06/13 08:28:01;;;;;;;30.00;12.02;;;;;;;23.06;40.43;101232.31;5052687;28;20435;-47
2023/06/13 08:30:26;;;;;;;26.05;12.25;;;;;;;23.12;40.07;101237.47;5052567;28;20437;-48
2023/06/13 08:32:53;;;;;;;23.05;12.07;;;;;;;23.19;39.55;101233.91;5051931;28;20464;-47
2023/06/13 08:35:19;;;;;;;18.60;11.73;;;;;;;23.17;39.01;101235.66;5052712;28;20032;-47
2023/06/13 08:37:45;;;;;;;17.55;11.90;;;;;;;23.26;39.66;101234.66;5052824;28;20032;-46
2023/06/13 08:40:12;;;;;;;22.55;11.98;;;;;;;23.34;39.91;101231.00;5051817;28;20025;-45
2023/06/13 08:42:38;;;;;;;20.65;11.48;;;;;;;23.54;39.47;101232.41;5052202;28;20516;-44
2023/06/13 08:45:04;;;;;;;24.58;13.18;;;;;;;23.63;38.79;101221.69;5052500;28;20465;-43
2023/06/13 08:47:29;;;;;;;23.15;11.82;;;;;;;23.66;38.71;101229.53;5051531;28;20071;-44
2023/06/13 08:49:55;;;;;;;23.70;12.80;;;;;;;23.76;37.86;101221.47;5052480;28;20025;-46
2023/06/13 08:52:20;;;;;;;20.08;11.10;;;;;;;23.92;37.57;101214.16;5051862;28;20094;-47
2023/06/13 08:54:52;;;;;;;26.70;12.65;;;;;;;23.96;36.23;101216.72;5052407;28;20025;-43
2023/06/13 08:57:19;;;;;;;23.70;12.23;;;;;;;24.08;36.49;101222.59;5052303;28;20052;-48
2023/06/13 08:59:48;;;;;;;18.65;11.57;;;;;;;24.26;36.52;101219.59;5052013;28;20386;-47
2023/06/13 09:02:23;;;;;;;22.98;11.55;;;;;;;24.49;37.14;101212.94;5052106;28;20424;-44
2023/06/13 09:04:49;;;;;;;20.98;12.13;;;;;;;24.53;35.86;101208.47;5052595;28;20033;-44
2023/06/13 09:07:16;;;;;;;21.85;11.55;;;;;;;24.67;36.05;101213.47;5052036;28;20083;-48
2023/06/13 09:09:42;;;;;;;21.67;11.23;;;;;;;24.79;37.12;101208.75;5052478;28;20033;-47
2023/06/13 09:12:11;;;;;;;19.25;11.45;;;;;;;24.91;35.75;101214.66;5052753;28;20028;-48
2023/06/13 09:14:37;;;;;;;22.90;11.80;;;;;;;25.06;36.01;101216.03;5051385;28;20475;-44
2023/06/13 09:17:03;;;;;;;25.27;11.20;;;;;;;25.15;34.77;101218.41;5051941;28;20146;-46
2023/06/13 09:19:28;;;;;;;25.20;12.30;;;;;;;24.94;33.56;101212.78;5051670;28;20389;-47
2023/06/13 09:21:54;;;;;;;26.15;12.82;;;;;;;24.97;34.47;101206.56;5051512;28;20477;-47
2023/06/13 09:24:19;;;;;;;27.33;12.20;;;;;;;25.06;34.11;101210.75;5054087;28;20075;-45
2023/06/13 09:26:45;;;;;;;27.42;12.43;;;;;;;25.18;34.63;101209.56;5055899;28;20108;-47
2023/06/13 09:29:10;;;;;;;21.25;11.18;;;;;;;25.48;35.57;101211.41;5055010;28;20024;-45
2023/06/13 09:31:37;;;;;;;25.02;11.88;;;;;;;25.64;34.43;101214.53;5055350;28;20028;-47
2023/06/13 09:34:03;;;;;;;24.08;11.40;;;;;;;25.88;32.82;101211.25;5055932;28;20017;-46
2023/06/13 09:36:28;;;;;;;27.27;11.68;;;;;;;25.78;31.76;101207.97;5054669;28;20029;-47
2023/06/13 09:38:54;;;;;;;24.80;11.40;;;;;;;26.00;32.60;101208.22;5055749;28;20024;-47
2023/06/13 09:41:19;;;;;;;21.65;11.43;;;;;;;26.24;32.97;101205.81;5055256;28;20039;-43
2023/06/13 09:43:45;;;;;;;25.40;12.02;;;;;;;26.06;31.02;101204.59;5054737;28;20025;-43
2023/06/13 09:46:12;;;;;;;26.13;11.85;;;;;;;26.33;31.89;101207.31;5055546;28;20029;-48
2023/06/13 09:48:37;;;;;;;23.45;11.80;;;;;;;26.52;31.94;101197.91;5054812;28;20021;-47
2023/06/13 09:51:05;;;;;;;25.67;10.88;;;;;;;26.71;30.54;101203.44;5055350;28;20036;-46
2023/06/13 09:53:30;;;;;;;;;;;;;;;26.80;32.01;101207.59;5055468;28;20473;-45
2023/06/13 09:55:55;;;;;;;22.75;11.57;;;;;;;26.84;29.86;101203.94;5054971;28;19913;-45
2023/06/13 09:58:20;;;;;;;20.60;11.00;;;;;;;27.14;29.81;101201.19;5054698;28;20036;-46
2023/06/13 10:00:48;;;;;;;22.35;10.77;;;;;;;26.92;29.26;101203.69;5055103;28;20028;-48
2023/06/13 10:03:16;;;;;;;26.38;10.85;;;;;;;27.46;28.78;101204.50;5054730;28;20051;-47
2023/06/13 10:05:43;;;;;;;22.25;10.85;;;;;;;27.66;28.06;101208.25;5054964;28;20592;-45
2023/06/13 10:08:08;;;;;;;23.87;11.67;;;;;;;27.79;28.18;101198.06;5055422;28;20028;-48
2023/06/13 10:10:33;;;;;;;25.53;10.60;;;;;;;27.73;27.37;101204.44;5054244;28;20037;-47
2023/06/13 10:13:01;;;;;;;23.35;11.30;;;;;;;27.28;27.03;101198.06;5054766;28;20290;-43
2023/06/13 10:15:34;;;;;;;20.50;10.55;;;;;;;27.41;27.84;101206.47;5054581;28;20465;-44
2023/06/13 10:18:05;;;;;;;24.80;11.27;;;;;;;28.78;26.12;101202.22;5054353;28;20143;-47
2023/06/13 10:20:30;;;;;;;24.15;11.00;;;;;;;29.83;24.78;101192.41;5054364;28;20033;-46
2023/06/13 10:22:57;;;;;;;23.10;11.32;;;;;;;30.54;24.03;101200.59;5055236;28;20021;-47
2023/06/13 10:25:27;;;;;;;21.23;10.38;;;;;;;31.41;24.73;101203.41;5053776;28;20025;-42
2023/06/13 10:27:54;;;;;;;22.98;10.63;;;;;;;32.15;22.51;101194.94;5054770;28;20029;-48
2023/06/13 10:30:32;;;;;;;28.42;10.10;;;;;;;32.70;22.30;101194.59;5054336;28;20548;-43
2023/06/13 10:33:10;;;;;;;22.55;11.02;;;;;;;33.68;19.90;101195.84;5054003;28;20032;-43
2023/06/13 10:36:00;;;;;;;21.17;10.90;;;;;;;34.24;19.53;101189.66;5054173;28;20032;-41
2023/06/13 10:38:54;;;;;;;22.63;10.30;;;;;;;34.63;19.54;101201.41;5049992;28;20059;-41
2023/06/13 10:41:31;;;;;;;22.13;10.20;;;;;;;35.02;19.23;101202.38;5053510;28;20060;-42
2023/06/13 10:44:03;;;;;;;24.20;10.73;;;;;;;34.13;19.59;101193.03;5054416;28;20550;-41
2023/06/13 10:46:29;;;;;;;17.85;9.60;;;;;;;35.42;17.86;101193.41;5053332;28;20469;-44
2023/06/13 10:48:54;;;;;;;19.93;10.50;;;;;;;34.82;17.31;101192.13;5054657;28;20036;-48
2023/06/13 10:51:20;;;;;;;21.20;10.40;;;;;;;35.38;17.00;101198.13;5053938;28;20036;-47
2023/06/13 10:53:51;;;;;;;16.93;10.17;;;;;;;35.63;16.86;101204.44;5053698;28;20032;-46
2023/06/13 10:56:16;;;;;;;18.70;9.90;;;;;;;34.98;16.86;101200.00;5054035;28;20032;-47
2023/06/13 10:58:42;;;;;;;23.67;9.90;;;;;;;35.17;17.19;101199.59;5054223;28;20017;-48
2023/06/13 11:01:28;;;;;;;20.17;10.03;;;;;;;35.33;17.47;101189.53;5053290;28;20033;-48
2023/06/13 11:04:13;;;;;;;19.55;9.75;;;;;;;34.62;18.34;101188.97;5054024;28;20031;-46
2023/06/13 11:06:41;;;;;;;19.63;10.10;;;;;;;35.30;16.74;101192.41;5053112;28;20377;-48
2023/06/13 11:09:16;;;;;;;21.13;10.27;;;;;;;35.18;17.35;101174.53;5053745;28;20017;-47
2023/06/13 11:11:46;;;;;;;19.60;9.93;;;;;;;34.46;17.26;101186.44;5054038;28;20029;-46